sensor_id;sensor_type;location;lat;lon;timestamp;P1;durP1;ratioP1;P2;durP2;ratioP2
4601;SDS011;2313;48.552;9.370;2024-01-30T00:01:37;15.50;;;8.60;;
4601;SDS011;2313;48.552;9.370;2024-01-30T00:04:03;9.43;;;5.93;;
4601;SDS011;2313;48.552;9.370;2024-01-30T00:06:28;14.00;;;6.10;;
4601;SDS011;2313;48.552;9.370;2024-01-30T00:08:54;10.83;;;5.93;;
4601;SDS011;2313;48.552;9.370;2024-01-30T00:11:19;8.43;;;5.37;;
4601;SDS011;2313;48.552;9.370;2024-01-30T00:13:46;6.83;;;4.57;;
4601;SDS011;2313;48.552;9.370;2024-01-30T00:16:21;9.50;;;5.90;;
4601;SDS011;2313;48.552;9.370;2024-01-30T00:18:49;5.63;;;4.95;;
4601;SDS011;2313;48.552;9.370;2024-01-30T00:21:15;8.65;;;4.32;;
4601;SDS011;2313;48.552;9.370;2024-01-30T00:23:41;8.60;;;4.77;;
4601;SDS011;2313;48.552;9.370;2024-01-30T00:26:06;5.47;;;4.60;;
4601;SDS011;2313;48.552;9.370;2024-01-30T00:28:32;7.30;;;5.27;;
4601;SDS011;2313;48.552;9.370;2024-01-30T00:30:58;6.57;;;4.97;;
4601;SDS011;2313;48.552;9.370;2024-01-30T00:33:23;11.70;;;5.30;;
4601;SDS011;2313;48.552;9.370;2024-01-30T00:35:49;6.30;;;4.63;;
4601;SDS011;2313;48.552;9.370;2024-01-30T00:38:14;6.47;;;5.10;;
4601;SDS011;2313;48.552;9.370;2024-01-30T00:40:40;7.87;;;5.23;;
4601;SDS011;2313;48.552;9.370;2024-01-30T00:43:06;7.90;;;5.60;;
4601;SDS011;2313;48.552;9.370;2024-01-30T00:45:32;11.57;;;5.63;;
4601;SDS011;2313;48.552;9.370;2024-01-30T00:47:57;7.80;;;5.30;;
4601;SDS011;2313;48.552;9.370;2024-01-30T00:50:23;6.40;;;5.17;;
4601;SDS011;2313;48.552;9.370;2024-01-30T00:52:49;10.63;;;6.63;;
4601;SDS011;2313;48.552;9.370;2024-01-30T00:55:14;9.90;;;6.27;;
4601;SDS011;2313;48.552;9.370;2024-01-30T00:57:40;8.80;;;5.77;;
4601;SDS011;2313;48.552;9.370;2024-01-30T01:00:05;8.40;;;5.60;;
4601;SDS011;2313;48.552;9.370;2024-01-30T01:02:34;15.38;;;5.75;;
4601;SDS011;2313;48.552;9.370;2024-01-30T01:05:01;9.73;;;5.85;;
4601;SDS011;2313;48.552;9.370;2024-01-30T01:07:26;11.50;;;6.85;;
4601;SDS011;2313;48.552;9.370;2024-01-30T01:09:52;8.67;;;5.80;;
4601;SDS011;2313;48.552;9.370;2024-01-30T01:12:18;7.60;;;5.60;;
4601;SDS011;2313;48.552;9.370;2024-01-30T01:14:43;9.60;;;6.17;;
4601;SDS011;2313;48.552;9.370;2024-01-30T01:17:09;7.97;;;5.80;;
4601;SDS011;2313;48.552;9.370;2024-01-30T01:19:34;9.70;;;6.70;;
4601;SDS011;2313;48.552;9.370;2024-01-30T01:22:00;8.27;;;5.80;;
4601;SDS011;2313;48.552;9.370;2024-01-30T01:24:26;8.67;;;5.97;;
4601;SDS011;2313;48.552;9.370;2024-01-30T01:26:51;9.00;;;5.90;;
4601;SDS011;2313;48.552;9.370;2024-01-30T01:29:17;8.70;;;4.53;;
4601;SDS011;2313;48.552;9.370;2024-01-30T01:31:42;7.80;;;5.37;;
4601;SDS011;2313;48.552;9.370;2024-01-30T01:34:09;10.10;;;5.37;;
4601;SDS011;2313;48.552;9.370;2024-01-30T01:36:35;10.00;;;5.60;;
4601;SDS011;2313;48.552;9.370;2024-01-30T01:39:01;11.53;;;5.63;;
4601;SDS011;2313;48.552;9.370;2024-01-30T01:41:31;6.45;;;4.93;;
4601;SDS011;2313;48.552;9.370;2024-01-30T01:43:59;8.05;;;5.20;;
4601;SDS011;2313;48.552;9.370;2024-01-30T01:46:30;7.20;;;5.20;;
4601;SDS011;2313;48.552;9.370;2024-01-30T01:48:58;9.40;;;5.88;;
4601;SDS011;2313;48.552;9.370;2024-01-30T01:51:25;11.85;;;5.70;;
4601;SDS011;2313;48.552;9.370;2024-01-30T01:53:53;4.80;;;4.00;;
4601;SDS011;2313;48.552;9.370;2024-01-30T01:56:19;5.60;;;4.10;;
4601;SDS011;2313;48.552;9.370;2024-01-30T01:58:46;7.70;;;4.47;;
4601;SDS011;2313;48.552;9.370;2024-01-30T02:01:12;5.75;;;4.70;;
4601;SDS011;2313;48.552;9.370;2024-01-30T02:03:39;6.28;;;4.45;;
4601;SDS011;2313;48.552;9.370;2024-01-30T02:06:06;4.60;;;3.73;;
4601;SDS011;2313;48.552;9.370;2024-01-30T02:08:31;3.43;;;2.93;;
4601;SDS011;2313;48.552;9.370;2024-01-30T02:10:57;3.23;;;2.93;;
4601;SDS011;2313;48.552;9.370;2024-01-30T02:13:23;6.67;;;4.30;;
4601;SDS011;2313;48.552;9.370;2024-01-30T02:15:49;6.10;;;4.13;;
4601;SDS011;2313;48.552;9.370;2024-01-30T02:18:15;6.10;;;3.90;;
4601;SDS011;2313;48.552;9.370;2024-01-30T02:20:41;9.33;;;4.80;;
4601;SDS011;2313;48.552;9.370;2024-01-30T02:23:08;8.00;;;3.77;;
4601;SDS011;2313;48.552;9.370;2024-01-30T02:25:39;5.72;;;3.72;;
4601;SDS011;2313;48.552;9.370;2024-01-30T02:28:14;6.53;;;3.92;;
4601;SDS011;2313;48.552;9.370;2024-01-30T02:30:40;4.70;;;4.20;;
4601;SDS011;2313;48.552;9.370;2024-01-30T02:33:07;6.05;;;4.03;;
4601;SDS011;2313;48.552;9.370;2024-01-30T02:35:33;5.20;;;3.50;;
4601;SDS011;2313;48.552;9.370;2024-01-30T02:37:59;5.27;;;4.43;;
4601;SDS011;2313;48.552;9.370;2024-01-30T02:40:25;6.07;;;4.03;;
4601;SDS011;2313;48.552;9.370;2024-01-30T02:42:50;9.27;;;3.53;;
4601;SDS011;2313;48.552;9.370;2024-01-30T02:45:16;5.47;;;3.63;;
4601;SDS011;2313;48.552;9.370;2024-01-30T02:47:42;3.80;;;3.10;;
4601;SDS011;2313;48.552;9.370;2024-01-30T02:50:08;3.97;;;3.50;;
4601;SDS011;2313;48.552;9.370;2024-01-30T02:52:34;7.33;;;3.70;;
4601;SDS011;2313;48.552;9.370;2024-01-30T02:54:59;5.73;;;3.60;;
4601;SDS011;2313;48.552;9.370;2024-01-30T02:57:25;7.37;;;3.50;;
4601;SDS011;2313;48.552;9.370;2024-01-30T02:59:51;6.43;;;3.50;;
4601;SDS011;2313;48.552;9.370;2024-01-30T03:02:17;5.47;;;3.30;;
4601;SDS011;2313;48.552;9.370;2024-01-30T03:04:43;5.40;;;3.83;;
4601;SDS011;2313;48.552;9.370;2024-01-30T03:07:08;5.57;;;3.40;;
4601;SDS011;2313;48.552;9.370;2024-01-30T03:09:34;7.90;;;3.53;;
4601;SDS011;2313;48.552;9.370;2024-01-30T03:12:01;7.68;;;4.40;;
4601;SDS011;2313;48.552;9.370;2024-01-30T03:14:27;3.80;;;3.03;;
4601;SDS011;2313;48.552;9.370;2024-01-30T03:16:52;3.27;;;2.77;;
4601;SDS011;2313;48.552;9.370;2024-01-30T03:19:18;5.07;;;2.70;;
4601;SDS011;2313;48.552;9.370;2024-01-30T03:21:43;9.03;;;2.63;;
4601;SDS011;2313;48.552;9.370;2024-01-30T03:24:09;5.30;;;3.37;;
4601;SDS011;2313;48.552;9.370;2024-01-30T03:26:35;9.60;;;2.87;;
4601;SDS011;2313;48.552;9.370;2024-01-30T03:29:01;2.70;;;2.37;;
4601;SDS011;2313;48.552;9.370;2024-01-30T03:31:26;7.53;;;3.20;;
4601;SDS011;2313;48.552;9.370;2024-01-30T03:33:52;5.03;;;3.50;;
4601;SDS011;2313;48.552;9.370;2024-01-30T03:36:18;5.03;;;4.10;;
4601;SDS011;2313;48.552;9.370;2024-01-30T03:38:43;6.20;;;4.07;;
4601;SDS011;2313;48.552;9.370;2024-01-30T03:41:09;6.63;;;4.00;;
4601;SDS011;2313;48.552;9.370;2024-01-30T03:43:35;8.53;;;4.30;;
4601;SDS011;2313;48.552;9.370;2024-01-30T03:46:01;4.87;;;3.73;;
4601;SDS011;2313;48.552;9.370;2024-01-30T03:48:28;7.40;;;4.50;;
4601;SDS011;2313;48.552;9.370;2024-01-30T03:50:53;8.50;;;4.43;;
4601;SDS011;2313;48.552;9.370;2024-01-30T03:53:19;5.90;;;4.00;;
4601;SDS011;2313;48.552;9.370;2024-01-30T03:55:45;6.83;;;4.80;;
4601;SDS011;2313;48.552;9.370;2024-01-30T03:58:10;6.17;;;5.10;;
4601;SDS011;2313;48.552;9.370;2024-01-30T04:00:36;8.03;;;4.93;;
4601;SDS011;2313;48.552;9.370;2024-01-30T04:03:01;7.60;;;5.50;;
4601;SDS011;2313;48.552;9.370;2024-01-30T04:05:27;9.20;;;5.00;;
4601;SDS011;2313;48.552;9.370;2024-01-30T04:07:53;8.60;;;5.70;;
4601;SDS011;2313;48.552;9.370;2024-01-30T04:10:18;8.17;;;5.47;;
4601;SDS011;2313;48.552;9.370;2024-01-30T04:12:44;8.93;;;5.27;;
4601;SDS011;2313;48.552;9.370;2024-01-30T04:15:10;10.80;;;7.07;;
4601;SDS011;2313;48.552;9.370;2024-01-30T04:17:35;10.03;;;6.50;;
4601;SDS011;2313;48.552;9.370;2024-01-30T04:20:01;8.30;;;6.27;;
4601;SDS011;2313;48.552;9.370;2024-01-30T04:22:27;6.97;;;6.20;;
4601;SDS011;2313;48.552;9.370;2024-01-30T04:24:52;6.43;;;5.20;;
4601;SDS011;2313;48.552;9.370;2024-01-30T04:27:18;7.50;;;5.43;;
4601;SDS011;2313;48.552;9.370;2024-01-30T04:29:43;6.27;;;5.23;;
4601;SDS011;2313;48.552;9.370;2024-01-30T04:32:09;6.73;;;5.63;;
4601;SDS011;2313;48.552;9.370;2024-01-30T04:34:36;8.50;;;5.60;;
4601;SDS011;2313;48.552;9.370;2024-01-30T04:37:02;6.95;;;4.80;;
4601;SDS011;2313;48.552;9.370;2024-01-30T04:39:27;4.80;;;4.37;;
4601;SDS011;2313;48.552;9.370;2024-01-30T04:41:53;9.73;;;5.47;;
4601;SDS011;2313;48.552;9.370;2024-01-30T04:44:19;9.10;;;5.70;;
4601;SDS011;2313;48.552;9.370;2024-01-30T04:46:44;8.37;;;5.27;;
4601;SDS011;2313;48.552;9.370;2024-01-30T04:49:10;11.00;;;6.60;;
4601;SDS011;2313;48.552;9.370;2024-01-30T04:51:36;9.60;;;6.57;;
4601;SDS011;2313;48.552;9.370;2024-01-30T04:54:04;11.20;;;7.43;;
4601;SDS011;2313;48.552;9.370;2024-01-30T04:56:30;14.40;;;6.80;;
4601;SDS011;2313;48.552;9.370;2024-01-30T04:58:56;8.68;;;6.03;;
4601;SDS011;2313;48.552;9.370;2024-01-30T05:01:22;9.73;;;6.03;;
4601;SDS011;2313;48.552;9.370;2024-01-30T05:03:47;9.37;;;5.20;;
4601;SDS011;2313;48.552;9.370;2024-01-30T05:06:13;5.87;;;4.00;;
4601;SDS011;2313;48.552;9.370;2024-01-30T05:08:49;9.35;;;4.47;;
4601;SDS011;2313;48.552;9.370;2024-01-30T05:11:15;7.20;;;5.37;;
4601;SDS011;2313;48.552;9.370;2024-01-30T05:13:40;9.00;;;6.20;;
4601;SDS011;2313;48.552;9.370;2024-01-30T05:16:06;6.93;;;5.20;;
4601;SDS011;2313;48.552;9.370;2024-01-30T05:18:31;7.20;;;4.87;;
4601;SDS011;2313;48.552;9.370;2024-01-30T05:20:57;8.63;;;6.93;;
4601;SDS011;2313;48.552;9.370;2024-01-30T05:23:23;5.63;;;5.03;;
4601;SDS011;2313;48.552;9.370;2024-01-30T05:25:48;5.10;;;4.20;;
4601;SDS011;2313;48.552;9.370;2024-01-30T05:28:14;7.53;;;5.00;;
4601;SDS011;2313;48.552;9.370;2024-01-30T05:30:39;8.10;;;4.80;;
4601;SDS011;2313;48.552;9.370;2024-01-30T05:33:05;7.67;;;5.50;;
4601;SDS011;2313;48.552;9.370;2024-01-30T05:35:30;7.30;;;4.97;;
4601;SDS011;2313;48.552;9.370;2024-01-30T05:37:56;15.30;;;5.27;;
4601;SDS011;2313;48.552;9.370;2024-01-30T05:40:21;7.40;;;5.57;;
4601;SDS011;2313;48.552;9.370;2024-01-30T05:42:48;7.40;;;5.37;;
4601;SDS011;2313;48.552;9.370;2024-01-30T05:45:13;7.43;;;5.20;;
4601;SDS011;2313;48.552;9.370;2024-01-30T05:47:39;7.97;;;5.13;;
4601;SDS011;2313;48.552;9.370;2024-01-30T05:50:05;7.73;;;5.57;;
4601;SDS011;2313;48.552;9.370;2024-01-30T05:52:31;7.82;;;4.95;;
4601;SDS011;2313;48.552;9.370;2024-01-30T05:54:56;9.50;;;7.37;;
4601;SDS011;2313;48.552;9.370;2024-01-30T05:57:22;7.87;;;5.30;;
4601;SDS011;2313;48.552;9.370;2024-01-30T05:59:48;6.70;;;5.30;;
4601;SDS011;2313;48.552;9.370;2024-01-30T06:02:13;13.60;;;5.40;;
4601;SDS011;2313;48.552;9.370;2024-01-30T06:04:39;8.40;;;5.60;;
4601;SDS011;2313;48.552;9.370;2024-01-30T06:07:05;7.53;;;5.40;;
4601;SDS011;2313;48.552;9.370;2024-01-30T06:09:31;9.45;;;5.43;;
4601;SDS011;2313;48.552;9.370;2024-01-30T06:11:57;6.40;;;4.87;;
4601;SDS011;2313;48.552;9.370;2024-01-30T06:14:23;6.80;;;4.67;;
4601;SDS011;2313;48.552;9.370;2024-01-30T06:16:49;6.20;;;5.00;;
4601;SDS011;2313;48.552;9.370;2024-01-30T06:19:15;6.17;;;4.90;;
4601;SDS011;2313;48.552;9.370;2024-01-30T06:21:40;7.93;;;5.20;;
4601;SDS011;2313;48.552;9.370;2024-01-30T06:24:06;10.10;;;5.83;;
4601;SDS011;2313;48.552;9.370;2024-01-30T06:26:32;8.70;;;5.67;;
4601;SDS011;2313;48.552;9.370;2024-01-30T06:28:57;7.77;;;5.50;;
4601;SDS011;2313;48.552;9.370;2024-01-30T06:31:23;7.67;;;5.53;;
4601;SDS011;2313;48.552;9.370;2024-01-30T06:33:49;10.73;;;6.10;;
4601;SDS011;2313;48.552;9.370;2024-01-30T06:36:14;12.55;;;6.07;;
4601;SDS011;2313;48.552;9.370;2024-01-30T06:38:40;7.80;;;5.97;;
4601;SDS011;2313;48.552;9.370;2024-01-30T06:41:06;9.67;;;6.73;;
4601;SDS011;2313;48.552;9.370;2024-01-30T06:43:32;14.93;;;8.23;;
4601;SDS011;2313;48.552;9.370;2024-01-30T06:45:58;10.33;;;6.53;;
4601;SDS011;2313;48.552;9.370;2024-01-30T06:48:24;10.20;;;6.53;;
4601;SDS011;2313;48.552;9.370;2024-01-30T06:50:52;7.23;;;5.87;;
4601;SDS011;2313;48.552;9.370;2024-01-30T06:53:19;7.60;;;5.22;;
4601;SDS011;2313;48.552;9.370;2024-01-30T06:55:45;9.02;;;5.80;;
4601;SDS011;2313;48.552;9.370;2024-01-30T06:58:10;7.20;;;5.50;;
4601;SDS011;2313;48.552;9.370;2024-01-30T07:00:36;6.90;;;5.93;;
4601;SDS011;2313;48.552;9.370;2024-01-30T07:03:02;9.00;;;6.80;;
4601;SDS011;2313;48.552;9.370;2024-01-30T07:05:27;8.70;;;4.93;;
4601;SDS011;2313;48.552;9.370;2024-01-30T07:07:53;6.27;;;4.63;;
4601;SDS011;2313;48.552;9.370;2024-01-30T07:10:18;6.87;;;5.73;;
4601;SDS011;2313;48.552;9.370;2024-01-30T07:12:44;6.13;;;5.33;;
4601;SDS011;2313;48.552;9.370;2024-01-30T07:15:10;12.20;;;5.47;;
4601;SDS011;2313;48.552;9.370;2024-01-30T07:17:35;6.50;;;5.27;;
4601;SDS011;2313;48.552;9.370;2024-01-30T07:20:02;7.43;;;5.53;;
4601;SDS011;2313;48.552;9.370;2024-01-30T07:22:31;10.05;;;6.28;;
4601;SDS011;2313;48.552;9.370;2024-01-30T07:24:58;6.70;;;5.60;;
4601;SDS011;2313;48.552;9.370;2024-01-30T07:27:24;7.80;;;5.57;;
4601;SDS011;2313;48.552;9.370;2024-01-30T07:29:49;8.23;;;5.90;;
4601;SDS011;2313;48.552;9.370;2024-01-30T07:32:15;7.40;;;5.70;;
4601;SDS011;2313;48.552;9.370;2024-01-30T07:34:40;5.73;;;5.13;;
4601;SDS011;2313;48.552;9.370;2024-01-30T07:37:06;11.73;;;5.50;;
4601;SDS011;2313;48.552;9.370;2024-01-30T07:39:33;7.68;;;5.65;;
4601;SDS011;2313;48.552;9.370;2024-01-30T07:41:59;8.27;;;5.80;;
4601;SDS011;2313;48.552;9.370;2024-01-30T07:44:25;5.63;;;5.07;;
4601;SDS011;2313;48.552;9.370;2024-01-30T07:46:50;9.33;;;5.90;;
4601;SDS011;2313;48.552;9.370;2024-01-30T07:49:16;10.90;;;7.80;;
4601;SDS011;2313;48.552;9.370;2024-01-30T07:51:42;7.40;;;5.37;;
4601;SDS011;2313;48.552;9.370;2024-01-30T07:54:08;13.00;;;5.60;;
4601;SDS011;2313;48.552;9.370;2024-01-30T07:56:33;9.17;;;5.90;;
4601;SDS011;2313;48.552;9.370;2024-01-30T07:58:59;7.77;;;5.30;;
4601;SDS011;2313;48.552;9.370;2024-01-30T08:01:25;9.43;;;6.40;;
4601;SDS011;2313;48.552;9.370;2024-01-30T08:03:50;10.93;;;7.00;;
4601;SDS011;2313;48.552;9.370;2024-01-30T08:06:16;12.43;;;9.03;;
4601;SDS011;2313;48.552;9.370;2024-01-30T08:08:42;13.30;;;8.70;;
4601;SDS011;2313;48.552;9.370;2024-01-30T08:11:07;9.83;;;8.17;;
4601;SDS011;2313;48.552;9.370;2024-01-30T08:13:33;12.77;;;8.20;;
4601;SDS011;2313;48.552;9.370;2024-01-30T08:15:59;21.50;;;10.27;;
4601;SDS011;2313;48.552;9.370;2024-01-30T08:18:24;13.30;;;9.00;;
4601;SDS011;2313;48.552;9.370;2024-01-30T08:20:50;10.37;;;8.90;;
4601;SDS011;2313;48.552;9.370;2024-01-30T08:23:16;14.17;;;8.80;;
4601;SDS011;2313;48.552;9.370;2024-01-30T08:25:41;12.07;;;8.03;;
4601;SDS011;2313;48.552;9.370;2024-01-30T08:28:07;14.57;;;8.80;;
4601;SDS011;2313;48.552;9.370;2024-01-30T08:30:33;18.70;;;9.67;;
4601;SDS011;2313;48.552;9.370;2024-01-30T08:32:58;14.23;;;10.60;;
4601;SDS011;2313;48.552;9.370;2024-01-30T08:35:24;14.77;;;9.17;;
4601;SDS011;2313;48.552;9.370;2024-01-30T08:37:50;12.90;;;9.73;;
4601;SDS011;2313;48.552;9.370;2024-01-30T08:40:15;12.37;;;7.47;;
4601;SDS011;2313;48.552;9.370;2024-01-30T08:42:41;11.73;;;8.90;;
4601;SDS011;2313;48.552;9.370;2024-01-30T08:45:06;12.53;;;9.30;;
4601;SDS011;2313;48.552;9.370;2024-01-30T08:47:33;11.33;;;8.90;;
4601;SDS011;2313;48.552;9.370;2024-01-30T08:49:58;15.40;;;7.60;;
4601;SDS011;2313;48.552;9.370;2024-01-30T08:52:24;2.57;;;1.60;;
4601;SDS011;2313;48.552;9.370;2024-01-30T08:54:50;8.50;;;5.27;;
4601;SDS011;2313;48.552;9.370;2024-01-30T08:57:15;18.70;;;10.20;;
4601;SDS011;2313;48.552;9.370;2024-01-30T08:59:41;14.80;;;10.57;;
4601;SDS011;2313;48.552;9.370;2024-01-30T09:02:09;2.60;;;2.40;;
4601;SDS011;2313;48.552;9.370;2024-01-30T09:04:35;2.53;;;1.70;;
4601;SDS011;2313;48.552;9.370;2024-01-30T09:07:00;1.13;;;1.00;;
4601;SDS011;2313;48.552;9.370;2024-01-30T09:09:26;1.20;;;1.03;;
4601;SDS011;2313;48.552;9.370;2024-01-30T09:11:51;2.47;;;1.87;;
4601;SDS011;2313;48.552;9.370;2024-01-30T09:14:17;3.20;;;1.30;;
4601;SDS011;2313;48.552;9.370;2024-01-30T09:16:43;2.80;;;1.00;;
4601;SDS011;2313;48.552;9.370;2024-01-30T09:19:08;3.03;;;1.03;;
4601;SDS011;2313;48.552;9.370;2024-01-30T09:21:34;2.97;;;1.47;;
4601;SDS011;2313;48.552;9.370;2024-01-30T09:24:03;2.00;;;1.57;;
4601;SDS011;2313;48.552;9.370;2024-01-30T09:26:29;2.23;;;1.40;;
4601;SDS011;2313;48.552;9.370;2024-01-30T09:28:54;1.20;;;1.00;;
4601;SDS011;2313;48.552;9.370;2024-01-30T09:31:20;2.37;;;1.63;;
4601;SDS011;2313;48.552;9.370;2024-01-30T09:33:45;1.27;;;1.17;;
4601;SDS011;2313;48.552;9.370;2024-01-30T09:36:13;2.53;;;1.57;;
4601;SDS011;2313;48.552;9.370;2024-01-30T09:38:40;1.40;;;1.07;;
4601;SDS011;2313;48.552;9.370;2024-01-30T09:41:09;7.57;;;3.80;;
4601;SDS011;2313;48.552;9.370;2024-01-30T09:43:38;6.30;;;4.27;;
4601;SDS011;2313;48.552;9.370;2024-01-30T09:46:08;5.23;;;3.93;;
4601;SDS011;2313;48.552;9.370;2024-01-30T09:48:38;5.17;;;2.43;;
4601;SDS011;2313;48.552;9.370;2024-01-30T09:51:06;1.70;;;1.53;;
4601;SDS011;2313;48.552;9.370;2024-01-30T09:53:34;3.97;;;2.30;;
4601;SDS011;2313;48.552;9.370;2024-01-30T09:56:01;5.70;;;4.77;;
4601;SDS011;2313;48.552;9.370;2024-01-30T09:58:28;10.17;;;5.57;;
4601;SDS011;2313;48.552;9.370;2024-01-30T10:00:53;17.60;;;10.17;;
4601;SDS011;2313;48.552;9.370;2024-01-30T10:03:19;9.60;;;5.60;;
4601;SDS011;2313;48.552;9.370;2024-01-30T10:05:49;6.07;;;5.40;;
4601;SDS011;2313;48.552;9.370;2024-01-30T10:08:19;10.00;;;7.00;;
4601;SDS011;2313;48.552;9.370;2024-01-30T10:10:46;3.07;;;2.00;;
4601;SDS011;2313;48.552;9.370;2024-01-30T10:13:12;10.17;;;6.47;;
4601;SDS011;2313;48.552;9.370;2024-01-30T10:15:37;18.87;;;12.40;;
4601;SDS011;2313;48.552;9.370;2024-01-30T10:18:04;17.97;;;11.10;;
4601;SDS011;2313;48.552;9.370;2024-01-30T10:20:31;21.20;;;11.27;;
4601;SDS011;2313;48.552;9.370;2024-01-30T10:22:57;26.87;;;14.47;;
4601;SDS011;2313;48.552;9.370;2024-01-30T10:25:23;19.73;;;11.37;;
4601;SDS011;2313;48.552;9.370;2024-01-30T10:27:53;18.37;;;12.43;;
4601;SDS011;2313;48.552;9.370;2024-01-30T10:30:20;21.13;;;14.50;;
4601;SDS011;2313;48.552;9.370;2024-01-30T10:32:48;26.70;;;14.00;;
4601;SDS011;2313;48.552;9.370;2024-01-30T10:35:14;18.27;;;12.07;;
4601;SDS011;2313;48.552;9.370;2024-01-30T10:37:43;13.20;;;9.70;;
4601;SDS011;2313;48.552;9.370;2024-01-30T10:40:09;19.83;;;11.90;;
4601;SDS011;2313;48.552;9.370;2024-01-30T10:42:38;21.17;;;13.03;;
4601;SDS011;2313;48.552;9.370;2024-01-30T10:45:10;26.27;;;17.87;;
4601;SDS011;2313;48.552;9.370;2024-01-30T10:47:42;19.73;;;11.13;;
4601;SDS011;2313;48.552;9.370;2024-01-30T10:50:13;26.50;;;13.57;;
4601;SDS011;2313;48.552;9.370;2024-01-30T10:52:39;17.17;;;10.60;;
4601;SDS011;2313;48.552;9.370;2024-01-30T10:55:07;18.80;;;10.40;;
4601;SDS011;2313;48.552;9.370;2024-01-30T10:57:37;23.70;;;10.50;;
4601;SDS011;2313;48.552;9.370;2024-01-30T11:00:12;19.20;;;10.37;;
4601;SDS011;2313;48.552;9.370;2024-01-30T11:02:44;12.27;;;7.00;;
4601;SDS011;2313;48.552;9.370;2024-01-30T11:05:11;5.83;;;2.80;;
4601;SDS011;2313;48.552;9.370;2024-01-30T11:07:38;3.50;;;2.20;;
4601;SDS011;2313;48.552;9.370;2024-01-30T11:10:06;3.53;;;1.80;;
4601;SDS011;2313;48.552;9.370;2024-01-30T11:12:37;6.70;;;3.27;;
4601;SDS011;2313;48.552;9.370;2024-01-30T11:15:09;3.93;;;2.37;;
4601;SDS011;2313;48.552;9.370;2024-01-30T11:17:39;3.37;;;2.77;;
4601;SDS011;2313;48.552;9.370;2024-01-30T11:20:06;6.03;;;3.10;;
4601;SDS011;2313;48.552;9.370;2024-01-30T11:22:35;4.50;;;2.20;;
4601;SDS011;2313;48.552;9.370;2024-01-30T11:25:01;3.93;;;2.13;;
4601;SDS011;2313;48.552;9.370;2024-01-30T11:27:28;4.43;;;1.73;;
4601;SDS011;2313;48.552;9.370;2024-01-30T11:30:00;4.57;;;2.80;;
4601;SDS011;2313;48.552;9.370;2024-01-30T11:32:27;2.47;;;2.17;;
4601;SDS011;2313;48.552;9.370;2024-01-30T11:34:53;2.40;;;2.00;;
4601;SDS011;2313;48.552;9.370;2024-01-30T11:37:19;1.73;;;1.63;;
4601;SDS011;2313;48.552;9.370;2024-01-30T11:39:46;2.27;;;1.40;;
4601;SDS011;2313;48.552;9.370;2024-01-30T11:42:13;4.30;;;1.90;;
4601;SDS011;2313;48.552;9.370;2024-01-30T11:44:39;2.27;;;1.77;;
4601;SDS011;2313;48.552;9.370;2024-01-30T11:47:05;2.20;;;2.00;;
4601;SDS011;2313;48.552;9.370;2024-01-30T11:49:31;17.80;;;2.80;;
4601;SDS011;2313;48.552;9.370;2024-01-30T11:51:57;5.43;;;2.27;;
4601;SDS011;2313;48.552;9.370;2024-01-30T11:54:22;3.43;;;2.33;;
4601;SDS011;2313;48.552;9.370;2024-01-30T11:56:48;2.37;;;2.17;;
4601;SDS011;2313;48.552;9.370;2024-01-30T11:59:14;2.60;;;2.10;;
4601;SDS011;2313;48.552;9.370;2024-01-30T12:01:39;3.10;;;1.60;;
4601;SDS011;2313;48.552;9.370;2024-01-30T12:04:05;2.10;;;1.77;;
4601;SDS011;2313;48.552;9.370;2024-01-30T12:06:34;3.53;;;2.30;;
4601;SDS011;2313;48.552;9.370;2024-01-30T12:09:01;3.60;;;2.00;;
4601;SDS011;2313;48.552;9.370;2024-01-30T12:11:29;2.50;;;1.90;;
4601;SDS011;2313;48.552;9.370;2024-01-30T12:13:55;2.70;;;2.10;;
4601;SDS011;2313;48.552;9.370;2024-01-30T12:16:21;2.53;;;1.80;;
4601;SDS011;2313;48.552;9.370;2024-01-30T12:18:47;2.07;;;1.87;;
4601;SDS011;2313;48.552;9.370;2024-01-30T12:21:16;3.23;;;1.63;;
4601;SDS011;2313;48.552;9.370;2024-01-30T12:23:42;2.43;;;2.20;;
4601;SDS011;2313;48.552;9.370;2024-01-30T12:26:09;2.77;;;1.77;;
4601;SDS011;2313;48.552;9.370;2024-01-30T12:28:35;2.70;;;1.50;;
4601;SDS011;2313;48.552;9.370;2024-01-30T12:31:01;5.07;;;2.30;;
4601;SDS011;2313;48.552;9.370;2024-01-30T12:33:28;2.63;;;2.30;;
4601;SDS011;2313;48.552;9.370;2024-01-30T12:35:54;2.03;;;1.70;;
4601;SDS011;2313;48.552;9.370;2024-01-30T12:38:21;3.97;;;1.97;;
4601;SDS011;2313;48.552;9.370;2024-01-30T12:40:48;2.90;;;2.43;;
4601;SDS011;2313;48.552;9.370;2024-01-30T12:43:14;2.53;;;2.00;;
4601;SDS011;2313;48.552;9.370;2024-01-30T12:45:41;3.03;;;2.10;;
4601;SDS011;2313;48.552;9.370;2024-01-30T12:48:07;2.23;;;1.90;;
4601;SDS011;2313;48.552;9.370;2024-01-30T12:50:33;2.23;;;2.00;;
4601;SDS011;2313;48.552;9.370;2024-01-30T12:52:59;3.37;;;2.30;;
4601;SDS011;2313;48.552;9.370;2024-01-30T12:55:25;2.00;;;1.90;;
4601;SDS011;2313;48.552;9.370;2024-01-30T12:57:53;2.43;;;1.83;;
4601;SDS011;2313;48.552;9.370;2024-01-30T13:00:19;2.30;;;1.90;;
4601;SDS011;2313;48.552;9.370;2024-01-30T13:02:45;2.77;;;1.90;;
4601;SDS011;2313;48.552;9.370;2024-01-30T13:05:12;2.83;;;1.80;;
4601;SDS011;2313;48.552;9.370;2024-01-30T13:07:38;7.50;;;2.00;;
4601;SDS011;2313;48.552;9.370;2024-01-30T13:10:03;3.90;;;2.20;;
4601;SDS011;2313;48.552;9.370;2024-01-30T13:12:30;2.50;;;2.30;;
4601;SDS011;2313;48.552;9.370;2024-01-30T13:14:57;3.63;;;2.10;;
4601;SDS011;2313;48.552;9.370;2024-01-30T13:17:23;3.07;;;2.23;;
4601;SDS011;2313;48.552;9.370;2024-01-30T13:19:49;7.43;;;2.43;;
4601;SDS011;2313;48.552;9.370;2024-01-30T13:22:15;4.60;;;2.43;;
4601;SDS011;2313;48.552;9.370;2024-01-30T13:24:40;2.37;;;2.10;;
4601;SDS011;2313;48.552;9.370;2024-01-30T13:27:07;4.33;;;1.90;;
4601;SDS011;2313;48.552;9.370;2024-01-30T13:29:33;5.00;;;2.00;;
4601;SDS011;2313;48.552;9.370;2024-01-30T13:31:59;3.90;;;3.40;;
4601;SDS011;2313;48.552;9.370;2024-01-30T13:34:25;2.43;;;2.23;;
4601;SDS011;2313;48.552;9.370;2024-01-30T13:36:50;2.33;;;2.10;;
4601;SDS011;2313;48.552;9.370;2024-01-30T13:39:16;2.33;;;1.93;;
4601;SDS011;2313;48.552;9.370;2024-01-30T13:41:42;2.33;;;1.90;;
4601;SDS011;2313;48.552;9.370;2024-01-30T13:44:08;3.47;;;2.17;;
4601;SDS011;2313;48.552;9.370;2024-01-30T13:46:34;2.40;;;1.90;;
4601;SDS011;2313;48.552;9.370;2024-01-30T13:49:00;2.60;;;2.07;;
4601;SDS011;2313;48.552;9.370;2024-01-30T13:51:26;2.63;;;2.20;;
4601;SDS011;2313;48.552;9.370;2024-01-30T13:53:52;2.27;;;2.07;;
4601;SDS011;2313;48.552;9.370;2024-01-30T13:56:17;5.63;;;2.07;;
4601;SDS011;2313;48.552;9.370;2024-01-30T13:58:44;5.20;;;2.03;;
4601;SDS011;2313;48.552;9.370;2024-01-30T14:01:10;4.10;;;2.30;;
4601;SDS011;2313;48.552;9.370;2024-01-30T14:03:35;2.80;;;2.30;;
4601;SDS011;2313;48.552;9.370;2024-01-30T14:06:01;2.60;;;2.03;;
4601;SDS011;2313;48.552;9.370;2024-01-30T14:08:27;2.50;;;2.20;;
4601;SDS011;2313;48.552;9.370;2024-01-30T14:10:53;3.40;;;2.33;;
4601;SDS011;2313;48.552;9.370;2024-01-30T14:13:21;3.47;;;2.37;;
4601;SDS011;2313;48.552;9.370;2024-01-30T14:15:47;3.10;;;2.40;;
4601;SDS011;2313;48.552;9.370;2024-01-30T14:18:14;2.20;;;2.00;;
4601;SDS011;2313;48.552;9.370;2024-01-30T14:20:40;2.00;;;1.80;;
4601;SDS011;2313;48.552;9.370;2024-01-30T14:23:06;9.20;;;1.90;;
4601;SDS011;2313;48.552;9.370;2024-01-30T14:25:32;3.43;;;2.10;;
4601;SDS011;2313;48.552;9.370;2024-01-30T14:27:57;2.70;;;2.07;;
4601;SDS011;2313;48.552;9.370;2024-01-30T14:30:23;3.27;;;2.30;;
4601;SDS011;2313;48.552;9.370;2024-01-30T14:32:48;4.97;;;2.47;;
4601;SDS011;2313;48.552;9.370;2024-01-30T14:35:14;5.20;;;2.43;;
4601;SDS011;2313;48.552;9.370;2024-01-30T14:37:40;7.73;;;2.97;;
4601;SDS011;2313;48.552;9.370;2024-01-30T14:40:06;3.47;;;2.77;;
4601;SDS011;2313;48.552;9.370;2024-01-30T14:42:32;8.77;;;2.97;;
4601;SDS011;2313;48.552;9.370;2024-01-30T14:44:58;4.07;;;1.90;;
4601;SDS011;2313;48.552;9.370;2024-01-30T14:47:24;5.40;;;2.87;;
4601;SDS011;2313;48.552;9.370;2024-01-30T14:49:50;6.63;;;3.23;;
4601;SDS011;2313;48.552;9.370;2024-01-30T14:52:17;4.60;;;2.97;;
4601;SDS011;2313;48.552;9.370;2024-01-30T14:54:42;2.60;;;2.40;;
4601;SDS011;2313;48.552;9.370;2024-01-30T14:57:08;3.83;;;2.60;;
4601;SDS011;2313;48.552;9.370;2024-01-30T14:59:34;3.10;;;2.37;;
4601;SDS011;2313;48.552;9.370;2024-01-30T15:02:00;5.47;;;2.00;;
4601;SDS011;2313;48.552;9.370;2024-01-30T15:04:29;4.80;;;2.50;;
4601;SDS011;2313;48.552;9.370;2024-01-30T15:06:54;5.53;;;2.87;;